SLCB/CBB METAR and TAF weather

Enter ICAO airport designator
Station Type Date Time Source
SLCB METAR 2019/06/26 20:00 UTC NOAA

SLCB 262000Z 26007KT 9999 NSC 26/M02 Q1017


Station Type Date Time Source
SLCB Decoded METAR 2019/06/26 20:00 UTC NOAA

Cochabamba, Bolivia (SLCB) 17-25S 066-11W 2570M
Jun 26, 2019 - 04:00 PM EDT / 2019.06.26 2000 UTC
Wind: from the W (260 degrees) at 8 MPH (7 KT):0
Visibility: greater than 7 mile(s):0
Temperature: 78 F (26 C)
Dew Point: 28 F (-2 C)
Relative Humidity: 15%
Pressure (altimeter): 30.03 in. Hg (1017 hPa)
ob: SLCB 262000Z 26007KT 9999 NSC 26/M02 Q1017
cycle: 20

Station Type Date Time Source
SLCB TAF 2019/06/26 18:39 UTC NOAA

TAF TAF SLCB 261635Z 2618/2718 30010KT 9999 NSC TX28/2619Z TN01/2711Z
TEMPO 2622/2624 13010KT
BECMG 2701/2703 00000KT
BECMG 2714/2716 30010KT

Example: see airport list